createdAt,value
2022-11-28T00:01:43.040Z,84.35
2022-11-28T00:04:11.509Z,83.65
2022-11-28T00:06:45.370Z,83.21
2022-11-28T00:09:14.461Z,83.59
2022-11-28T00:11:43.798Z,83.00
2022-11-28T00:14:11.389Z,83.51
2022-11-28T00:16:38.873Z,83.76
2022-11-28T00:19:07.172Z,83.34
2022-11-28T00:21:35.511Z,84.02
2022-11-28T00:24:03.385Z,83.30
2022-11-28T00:26:38.405Z,83.53
2022-11-28T00:29:07.827Z,83.50
2022-11-28T00:31:43.288Z,82.84
2022-11-28T00:34:13.961Z,83.57
2022-11-28T00:36:42.453Z,84.47
2022-11-28T00:39:09.632Z,83.68
2022-11-28T00:41:37.005Z,84.53
2022-11-28T00:44:04.096Z,83.47
2022-11-28T00:46:31.128Z,83.96
2022-11-28T00:48:59.197Z,83.95
2022-11-28T00:51:31.215Z,83.79
2022-11-28T00:54:00.681Z,83.75
2022-11-28T00:56:32.684Z,83.64
2022-11-28T00:59:00.103Z,84.29
2022-11-28T01:01:38.547Z,83.65
2022-11-28T01:04:09.633Z,83.53
2022-11-28T01:06:44.848Z,84.21
2022-11-28T01:09:18.097Z,83.68
2022-11-28T01:11:46.798Z,84.81
2022-11-28T01:14:13.916Z,84.50
2022-11-28T01:16:41.092Z,84.13
2022-11-28T01:19:08.695Z,84.06
2022-11-28T01:21:36.315Z,84.53
2022-11-28T01:24:04.483Z,84.01
2022-11-28T01:26:31.875Z,84.71
2022-11-28T01:29:00.604Z,84.75
2022-11-28T01:31:29.777Z,85.62
2022-11-28T01:33:57.907Z,85.14
2022-11-28T01:36:26.923Z,85.25
2022-11-28T01:38:54.174Z,85.03
2022-11-28T01:41:26.111Z,84.72
2022-11-28T01:44:05.410Z,85.04
2022-11-28T01:46:34.118Z,85.29
2022-11-28T01:49:21.908Z,85.65
2022-11-28T01:51:56.455Z,85.37
2022-11-28T01:54:25.854Z,85.66
2022-11-28T01:57:01.494Z,85.89
2022-11-28T01:59:35.063Z,85.55
2022-11-28T02:02:07.856Z,84.99
2022-11-28T02:04:35.360Z,85.80
2022-11-28T02:07:02.632Z,85.26
2022-11-28T02:09:29.676Z,85.83
2022-11-28T02:12:23.393Z,86.23
2022-11-28T02:15:08.492Z,85.93
2022-11-28T02:18:01.924Z,85.63
2022-11-28T02:21:00.034Z,85.96
2022-11-28T02:23:45.757Z,86.29
2022-11-28T02:26:24.931Z,86.45
2022-11-28T02:29:25.549Z,86.15
2022-11-28T02:32:20.357Z,86.02
2022-11-28T02:35:17.063Z,85.47
2022-11-28T02:37:53.014Z,87.11
2022-11-28T02:40:31.143Z,85.89
2022-11-28T02:43:30.784Z,86.23
2022-11-28T02:46:23.405Z,86.58
2022-11-28T02:49:02.443Z,86.39
2022-11-28T02:51:49.286Z,86.66
2022-11-28T02:54:18.619Z,86.54
2022-11-28T02:56:54.561Z,86.85
2022-11-28T02:59:33.666Z,86.91
2022-11-28T03:02:02.065Z,87.05
2022-11-28T03:04:58.147Z,86.60
2022-11-28T03:07:49.919Z,86.94
2022-11-28T03:10:48.900Z,87.16
2022-11-28T03:13:23.319Z,86.29
2022-11-28T03:16:19.363Z,86.67
2022-11-28T03:19:01.422Z,86.33
2022-11-28T03:21:48.794Z,87.09
2022-11-28T03:24:31.646Z,86.68
2022-11-28T03:27:24.741Z,87.72
2022-11-28T03:30:01.172Z,87.16
2022-11-28T03:32:33.852Z,87.11
2022-11-28T03:35:07.931Z,86.77
2022-11-28T03:37:41.353Z,87.03
2022-11-28T03:40:15.830Z,86.72
2022-11-28T03:42:58.044Z,87.53
2022-11-28T03:45:29.792Z,87.35
2022-11-28T03:48:10.334Z,87.69
2022-11-28T03:51:14.767Z,87.60
2022-11-28T03:53:51.871Z,88.31
2022-11-28T03:56:43.861Z,87.48
2022-11-28T03:59:23.816Z,87.54
2022-11-28T04:02:03.874Z,87.59
2022-11-28T04:04:52.613Z,87.91
2022-11-28T04:07:44.537Z,87.82
2022-11-28T04:10:25.181Z,86.95
2022-11-28T04:13:04.977Z,87.92
2022-11-28T04:15:57.699Z,87.04
2022-11-28T04:18:28.175Z,86.89
2022-11-28T04:21:24.729Z,87.40
2022-11-28T04:23:55.682Z,87.55
2022-11-28T04:26:32.264Z,87.44
2022-11-28T04:29:02.870Z,87.47
2022-11-28T04:31:31.512Z,87.68
2022-11-28T04:34:04.998Z,86.95
2022-11-28T04:36:35.742Z,87.46
2022-11-28T04:39:10.054Z,87.55
2022-11-28T04:41:47.066Z,87.22
2022-11-28T04:44:23.156Z,87.80
2022-11-28T04:46:54.968Z,87.85
2022-11-28T04:49:24.234Z,87.80
2022-11-28T04:52:12.319Z,87.89
2022-11-28T04:55:00.039Z,88.69
2022-11-28T04:57:33.827Z,88.29
2022-11-28T05:00:07.201Z,87.58
2022-11-28T05:02:36.137Z,87.57
2022-11-28T05:05:10.773Z,87.86
2022-11-28T05:07:37.928Z,88.21
2022-11-28T05:10:06.899Z,88.26
2022-11-28T05:12:34.142Z,87.70
2022-11-28T05:15:01.295Z,88.22
2022-11-28T05:17:28.598Z,87.80
2022-11-28T05:19:55.663Z,88.05
2022-11-28T05:22:22.851Z,87.89
2022-11-28T05:24:50.056Z,88.19
2022-11-28T05:27:17.546Z,88.49
2022-11-28T05:29:51.870Z,88.01
2022-11-28T05:32:20.345Z,88.01
2022-11-28T05:34:47.663Z,87.87
2022-11-28T05:37:14.736Z,88.13
2022-11-28T05:39:42.134Z,87.58
2022-11-28T05:42:09.281Z,88.02
2022-11-28T05:44:37.613Z,87.72
2022-11-28T05:47:05.181Z,87.98
2022-11-28T05:49:32.360Z,88.13
2022-11-28T05:51:59.417Z,87.89
2022-11-28T05:54:27.335Z,87.69
2022-11-28T05:56:54.438Z,88.10
2022-11-28T05:59:21.959Z,88.17
2022-11-28T06:01:49.404Z,87.60
2022-11-28T06:04:16.626Z,88.00
2022-11-28T06:06:44.103Z,89.16
2022-11-28T06:09:11.351Z,88.32
2022-11-28T06:11:38.625Z,88.16
2022-11-28T06:14:05.993Z,87.88
2022-11-28T06:16:33.375Z,88.12
2022-11-28T06:19:04.372Z,88.32
2022-11-28T06:21:33.082Z,87.78
2022-11-28T06:24:01.249Z,88.66
2022-11-28T06:26:29.358Z,88.51
2022-11-28T06:28:56.439Z,88.28
2022-11-28T06:31:28.372Z,88.53
2022-11-28T06:33:56.888Z,88.10
2022-11-28T06:36:31.219Z,88.24
2022-11-28T06:38:58.236Z,87.70
2022-11-28T06:41:25.396Z,87.93
2022-11-28T06:43:52.415Z,87.96
2022-11-28T06:46:21.924Z,88.39
2022-11-28T06:48:52.359Z,87.27
2022-11-28T06:51:20.643Z,87.58
2022-11-28T06:53:48.034Z,87.69
2022-11-28T06:56:19.250Z,88.01
2022-11-28T06:58:47.472Z,87.59
2022-11-28T07:01:22.095Z,88.82
2022-11-28T07:03:50.207Z,87.71
2022-11-28T07:06:22.235Z,87.63
2022-11-28T07:08:49.859Z,87.77
2022-11-28T07:11:19.541Z,87.89
2022-11-28T07:13:47.911Z,87.91
2022-11-28T07:16:28.346Z,88.14
2022-11-28T07:18:56.962Z,88.81
2022-11-28T07:21:24.444Z,87.77
2022-11-28T07:23:52.305Z,88.29
2022-11-28T07:26:21.694Z,88.59
2022-11-28T07:28:50.268Z,88.40
2022-11-28T07:31:26.998Z,88.90
2022-11-28T07:33:54.411Z,87.78
2022-11-28T07:36:26.579Z,88.99
2022-11-28T07:38:56.894Z,89.18
2022-11-28T07:41:26.794Z,88.13
2022-11-28T07:43:57.749Z,87.93
2022-11-28T07:46:26.115Z,88.89
2022-11-28T07:48:53.678Z,89.59
2022-11-28T07:51:24.641Z,88.75
2022-11-28T07:53:53.193Z,88.89
2022-11-28T07:56:25.343Z,89.53
2022-11-28T07:58:52.980Z,89.04
2022-11-28T08:01:29.287Z,89.10
2022-11-28T08:03:57.085Z,89.41
2022-11-28T08:06:30.652Z,90.14
2022-11-28T08:09:00.450Z,89.85
2022-11-28T08:11:30.174Z,90.29
2022-11-28T08:13:58.196Z,90.43
2022-11-28T08:16:28.311Z,89.61
2022-11-28T08:18:57.192Z,88.82
2022-11-28T08:21:28.696Z,90.32
2022-11-28T08:23:59.552Z,90.82
2022-11-28T08:26:30.588Z,89.87
2022-11-28T08:29:03.246Z,90.10
2022-11-28T08:31:37.587Z,90.90
2022-11-28T08:34:07.347Z,90.02
2022-11-28T08:36:35.474Z,90.15
2022-11-28T08:41:59.757Z,90.64
2022-11-28T08:44:30.471Z,90.44
2022-11-28T08:46:58.139Z,89.88
2022-11-28T08:49:25.405Z,90.45
2022-11-28T08:51:52.509Z,90.14
2022-11-28T08:54:23.290Z,90.47
2022-11-28T08:56:50.768Z,90.47
2022-11-28T08:59:18.100Z,91.08
2022-11-28T09:01:45.317Z,90.56
2022-11-28T09:04:12.492Z,90.76
2022-11-28T09:06:40.387Z,90.40
2022-11-28T09:09:10.138Z,90.84
2022-11-28T09:11:38.276Z,90.38
2022-11-28T09:14:05.767Z,91.05
2022-11-28T09:16:33.006Z,90.88
2022-11-28T09:19:00.199Z,90.91
2022-11-28T09:21:27.420Z,90.78
2022-11-28T09:23:56.774Z,91.08
2022-11-28T09:26:25.471Z,91.29
2022-11-28T09:28:54.145Z,91.32
2022-11-28T09:31:22.856Z,91.47
2022-11-28T09:33:52.576Z,91.26
2022-11-28T09:36:23.208Z,91.01
2022-11-28T09:38:53.825Z,91.20
2022-11-28T09:41:42.675Z,91.83
2022-11-28T09:44:44.483Z,91.08
2022-11-28T09:47:31.056Z,91.38
2022-11-28T09:50:20.910Z,91.40
2022-11-28T09:53:35.094Z,91.64
2022-11-28T09:56:17.466Z,91.16
2022-11-28T09:58:53.227Z,91.91
2022-11-28T10:01:43.626Z,91.21
2022-11-28T10:04:29.565Z,92.36
2022-11-28T10:07:28.104Z,91.25
2022-11-28T10:10:19.473Z,91.46
2022-11-28T10:13:07.750Z,91.57
2022-11-28T10:15:51.952Z,91.82
2022-11-28T10:18:47.455Z,91.41
2022-11-28T10:21:27.295Z,92.06
2022-11-28T10:24:03.964Z,91.77
2022-11-28T10:26:41.923Z,92.02
2022-11-28T10:29:54.314Z,91.83
2022-11-28T10:32:37.296Z,92.16
2022-11-28T10:35:29.692Z,91.93
2022-11-28T10:37:56.906Z,91.94
2022-11-28T10:40:51.984Z,92.92
2022-11-28T10:43:54.455Z,91.88
2022-11-28T10:46:49.470Z,92.92
2022-11-28T10:49:54.392Z,92.50
2022-11-28T10:53:06.983Z,91.88
2022-11-28T10:56:11.857Z,92.46
2022-11-28T10:59:12.802Z,91.85
2022-11-28T11:01:44.681Z,91.61
2022-11-28T11:04:20.525Z,92.82
2022-11-28T11:07:22.661Z,91.68
2022-11-28T11:09:55.838Z,91.90
2022-11-28T11:12:32.566Z,92.22
2022-11-28T11:15:15.414Z,92.58
2022-11-28T11:17:42.654Z,92.24
2022-11-28T11:20:29.225Z,91.98
2022-11-28T11:22:59.455Z,91.96
2022-11-28T11:25:30.261Z,92.22
2022-11-28T11:28:02.041Z,91.42
2022-11-28T11:30:38.812Z,91.40
2022-11-28T11:33:14.499Z,92.08
2022-11-28T11:35:48.831Z,91.53
2022-11-28T11:38:21.339Z,92.53
2022-11-28T11:40:50.876Z,92.25
2022-11-28T11:43:29.798Z,91.39
2022-11-28T11:46:15.241Z,91.56
2022-11-28T11:48:53.442Z,91.77
2022-11-28T11:51:32.730Z,91.55
2022-11-28T11:54:17.346Z,91.39
2022-11-28T11:56:51.219Z,91.75
2022-11-28T11:59:30.994Z,91.02
2022-11-28T12:02:16.723Z,90.88
2022-11-28T12:04:55.384Z,91.16
2022-11-28T12:07:33.987Z,91.77
2022-11-28T12:10:04.577Z,91.16
2022-11-28T12:12:37.109Z,91.00
2022-11-28T12:15:13.257Z,90.88
2022-11-28T12:18:10.614Z,90.89
2022-11-28T12:21:13.646Z,91.64
2022-11-28T12:24:07.493Z,91.28
2022-11-28T12:27:23.786Z,90.88
2022-11-28T12:30:05.986Z,91.13
2022-11-28T12:32:33.297Z,91.09
2022-11-28T12:35:22.210Z,90.50
2022-11-28T12:38:19.660Z,90.25
2022-11-28T12:41:32.145Z,90.33
2022-11-28T12:44:26.656Z,89.71
2022-11-28T12:47:17.662Z,90.32
2022-11-28T12:50:03.347Z,89.52
2022-11-28T12:53:28.388Z,90.05
2022-11-28T12:56:27.820Z,89.96
2022-11-28T12:58:59.860Z,89.33
2022-11-28T13:02:15.698Z,89.14
2022-11-28T13:05:18.098Z,89.25
2022-11-28T13:08:48.521Z,88.89
2022-11-28T13:11:33.792Z,88.65
2022-11-28T13:14:56.656Z,88.47
2022-11-28T13:17:53.494Z,88.67
2022-11-28T13:20:42.630Z,88.82
2022-11-28T13:23:20.815Z,87.80
2022-11-28T13:26:03.806Z,88.29
2022-11-28T13:28:49.676Z,87.82
2022-11-28T13:32:15.918Z,88.03
2022-11-28T13:34:43.543Z,88.12
2022-11-28T13:40:41.202Z,87.89
2022-11-28T13:43:21.200Z,88.32
2022-11-28T13:45:48.868Z,87.83
2022-11-28T13:48:57.382Z,87.47
2022-11-28T13:51:32.094Z,87.79
2022-11-28T13:54:21.679Z,88.07
2022-11-28T13:57:16.863Z,88.25
2022-11-28T14:00:04.610Z,87.96
2022-11-28T14:02:47.230Z,87.67
2022-11-28T14:05:38.762Z,87.55
2022-11-28T14:08:07.509Z,87.92
2022-11-28T14:10:52.976Z,87.67
2022-11-28T14:13:40.465Z,88.00
2022-11-28T14:16:35.589Z,87.66
2022-11-28T14:19:13.220Z,87.67
2022-11-28T14:22:33.270Z,87.99
2022-11-28T14:25:42.969Z,88.19
2022-11-28T14:28:37.879Z,88.21
2022-11-28T14:31:11.268Z,88.53
2022-11-28T14:33:42.920Z,88.29
2022-11-28T14:36:34.401Z,87.85
2022-11-28T14:39:16.636Z,88.25
2022-11-28T14:42:02.776Z,88.61
2022-11-28T14:44:56.717Z,88.06
2022-11-28T14:47:24.024Z,88.22
2022-11-28T14:50:09.636Z,87.77
2022-11-28T14:52:43.000Z,88.19
2022-11-28T14:55:13.111Z,88.45
2022-11-28T14:58:01.845Z,88.13
2022-11-28T15:00:49.543Z,88.25
2022-11-28T15:03:31.613Z,88.13
2022-11-28T15:06:03.909Z,88.34
2022-11-28T15:08:48.944Z,88.33
2022-11-28T15:11:40.367Z,88.02
2022-11-28T15:14:23.228Z,88.57
2022-11-28T15:16:57.008Z,88.27
2022-11-28T15:19:48.311Z,88.20
2022-11-28T15:22:42.154Z,87.92
2022-11-28T15:25:23.491Z,88.42
2022-11-28T15:27:51.720Z,88.33
2022-11-28T15:30:26.981Z,87.80
2022-11-28T15:33:00.248Z,88.09
2022-11-28T15:35:28.967Z,87.81
2022-11-28T15:37:58.325Z,87.98
2022-11-28T15:40:35.937Z,88.00
2022-11-28T15:43:12.622Z,87.88
2022-11-28T15:45:42.845Z,87.83
2022-11-28T15:48:39.340Z,88.23
2022-11-28T15:51:08.598Z,88.02
2022-11-28T15:53:42.624Z,87.94
2022-11-28T15:56:15.269Z,88.42
2022-11-28T15:58:45.505Z,88.41
2022-11-28T16:01:21.873Z,87.71
2022-11-28T16:04:15.415Z,87.50
2022-11-28T16:06:51.054Z,88.25
2022-11-28T16:09:18.606Z,87.74
2022-11-28T16:11:50.680Z,88.33
2022-11-28T16:14:44.196Z,88.14
2022-11-28T16:17:27.271Z,88.47
2022-11-28T16:19:57.147Z,88.63
2022-11-28T16:22:36.806Z,88.60
2022-11-28T16:25:24.498Z,88.35
2022-11-28T16:27:53.571Z,88.32
2022-11-28T16:30:33.203Z,88.46
2022-11-28T16:33:01.446Z,88.43
2022-11-28T16:35:40.926Z,88.31
2022-11-28T16:38:28.137Z,88.14
2022-11-28T16:41:01.738Z,88.28
2022-11-28T16:43:37.774Z,88.19
2022-11-28T16:46:16.285Z,88.35
2022-11-28T16:48:56.645Z,88.48
2022-11-28T16:51:28.156Z,88.49
2022-11-28T16:54:00.725Z,88.53
2022-11-28T16:56:31.467Z,88.42
2022-11-28T16:59:08.190Z,87.70
2022-11-28T17:01:36.766Z,88.60
2022-11-28T17:04:05.486Z,88.24
2022-11-28T17:06:37.633Z,88.56
2022-11-28T17:09:12.046Z,88.90
2022-11-28T17:11:46.575Z,88.68
2022-11-28T17:14:14.566Z,88.33
2022-11-28T17:16:43.507Z,88.38
2022-11-28T17:19:11.689Z,88.57
2022-11-28T17:21:55.842Z,88.42
2022-11-28T17:24:27.325Z,88.41
2022-11-28T17:26:55.606Z,88.70
2022-11-28T17:29:25.591Z,88.82
2022-11-28T17:31:55.456Z,88.50
2022-11-28T17:34:31.399Z,88.46
2022-11-28T17:37:01.161Z,88.41
2022-11-28T17:39:30.723Z,87.98
2022-11-28T17:42:01.364Z,89.02
2022-11-28T17:44:32.486Z,88.19
2022-11-28T17:47:02.380Z,89.25
2022-11-28T17:49:31.230Z,88.59
2022-11-28T17:52:01.498Z,88.53
2022-11-28T17:54:29.736Z,88.27
2022-11-28T17:56:59.040Z,88.81
2022-11-28T17:59:27.275Z,88.25
2022-11-28T18:01:55.075Z,88.27
2022-11-28T18:04:28.911Z,88.79
2022-11-28T18:06:58.843Z,87.97
2022-11-28T18:09:26.928Z,88.28
2022-11-28T18:11:54.532Z,87.98
2022-11-28T18:14:22.341Z,88.30
2022-11-28T18:16:52.102Z,88.41
2022-11-28T18:19:19.900Z,88.05
2022-11-28T18:21:48.120Z,87.82
2022-11-28T18:24:15.842Z,88.91
2022-11-28T18:26:43.359Z,88.34
2022-11-28T18:29:11.031Z,88.58
2022-11-28T18:31:38.689Z,87.96
2022-11-28T18:34:08.200Z,87.63
2022-11-28T18:36:38.361Z,87.69
2022-11-28T18:39:09.902Z,88.18
2022-11-28T18:41:37.832Z,88.16
2022-11-28T18:44:06.634Z,88.57
2022-11-28T18:46:35.567Z,87.82
2022-11-28T18:49:03.554Z,87.98
2022-11-28T18:51:35.574Z,88.09
2022-11-28T18:54:06.837Z,87.55
2022-11-28T18:56:35.092Z,88.23
2022-11-28T18:59:03.561Z,87.84
2022-11-28T19:01:34.439Z,88.42
2022-11-28T19:04:08.781Z,88.17
2022-11-28T19:06:37.518Z,88.21
2022-11-28T19:09:09.629Z,88.49
2022-11-28T19:11:38.618Z,88.26
2022-11-28T19:14:08.269Z,87.95
2022-11-28T19:16:37.801Z,88.13
2022-11-28T19:19:06.629Z,88.79
2022-11-28T19:21:36.665Z,88.24
2022-11-28T19:24:08.069Z,87.81
2022-11-28T19:26:36.093Z,88.55
2022-11-28T19:29:03.339Z,88.68
2022-11-28T19:31:34.625Z,87.81
2022-11-28T19:34:13.599Z,88.13
2022-11-28T19:36:48.120Z,88.37
2022-11-28T19:39:19.313Z,88.11
2022-11-28T19:41:47.475Z,88.13
2022-11-28T19:44:15.717Z,88.31
2022-11-28T19:46:43.619Z,88.29
2022-11-28T19:49:22.708Z,88.54
2022-11-28T19:51:51.147Z,89.03
2022-11-28T19:54:19.919Z,88.59
2022-11-28T19:56:49.229Z,88.99
2022-11-28T19:59:17.554Z,88.36
2022-11-28T20:01:48.304Z,88.34
2022-11-28T20:04:16.464Z,88.11
2022-11-28T20:06:43.541Z,88.41
2022-11-28T20:09:13.945Z,88.15
2022-11-28T20:11:44.280Z,87.83
2022-11-28T20:14:16.369Z,88.60
2022-11-28T20:16:46.868Z,87.82
2022-11-28T20:19:16.156Z,87.87
2022-11-28T20:21:46.172Z,87.88
2022-11-28T20:24:15.025Z,87.89
2022-11-28T20:26:44.050Z,87.53
2022-11-28T20:29:16.161Z,87.49
2022-11-28T20:31:45.878Z,88.03
2022-11-28T20:34:18.021Z,87.99
2022-11-28T20:36:46.162Z,88.25
2022-11-28T20:39:13.969Z,87.57
2022-11-28T20:41:41.155Z,88.58
2022-11-28T20:44:09.469Z,87.79
2022-11-28T20:46:37.044Z,88.28
2022-11-28T20:49:07.610Z,87.80
2022-11-28T20:51:36.044Z,88.78
2022-11-28T20:54:05.884Z,87.65
2022-11-28T20:57:19.582Z,88.88
2022-11-28T20:59:32.543Z,88.32
2022-11-28T21:02:02.071Z,87.90
2022-11-28T21:04:32.004Z,88.43
2022-11-28T21:06:59.059Z,87.87
2022-11-28T21:09:26.169Z,88.39
2022-11-28T21:11:58.862Z,88.01
2022-11-28T21:14:29.227Z,88.52
2022-11-28T21:16:58.238Z,88.90
2022-11-28T21:19:25.569Z,88.60
2022-11-28T21:21:52.695Z,88.28
2022-11-28T21:24:20.116Z,88.13
2022-11-28T21:26:52.892Z,88.32
2022-11-28T21:29:22.296Z,88.33
2022-11-28T21:31:49.467Z,88.57
2022-11-28T21:34:17.658Z,88.68
2022-11-28T21:36:45.423Z,88.90
2022-11-28T21:39:20.111Z,89.49
2022-11-28T21:41:48.304Z,89.70
2022-11-28T21:44:23.052Z,89.14
2022-11-28T21:46:50.194Z,89.32
2022-11-28T21:49:17.873Z,89.31
2022-11-28T21:51:45.089Z,88.91
2022-11-28T21:54:12.795Z,88.82
2022-11-28T21:56:40.417Z,89.49
2022-11-28T21:59:08.431Z,90.13
2022-11-28T22:01:37.051Z,89.66
2022-11-28T22:04:05.292Z,89.60
2022-11-28T22:06:33.246Z,89.57
2022-11-28T22:09:09.232Z,89.02
2022-11-28T22:11:38.734Z,89.97
2022-11-28T22:14:06.018Z,89.21
2022-11-28T22:16:33.428Z,90.08
2022-11-28T22:19:01.248Z,89.93
2022-11-28T22:21:51.771Z,89.23
2022-11-28T22:24:15.946Z,89.61
2022-11-28T22:26:44.227Z,90.21
2022-11-28T22:29:12.444Z,90.16
2022-11-28T22:31:39.830Z,90.33
2022-11-28T22:34:09.364Z,90.30
2022-11-28T22:36:36.812Z,89.84
2022-11-28T22:39:05.088Z,90.09
2022-11-28T22:41:32.318Z,89.32
2022-11-28T22:44:01.796Z,89.82
2022-11-28T22:46:32.178Z,89.96
2022-11-28T22:49:01.477Z,89.76
2022-11-28T22:51:30.488Z,90.21
2022-11-28T22:54:01.077Z,89.19
2022-11-28T22:56:32.354Z,90.02
2022-11-28T22:59:01.589Z,90.40
2022-11-28T23:01:31.633Z,90.27
2022-11-28T23:04:00.795Z,90.37
2022-11-28T23:06:31.448Z,89.98
2022-11-28T23:09:00.874Z,89.64
2022-11-28T23:11:35.338Z,90.12
2022-11-28T23:14:05.328Z,89.56
2022-11-28T23:16:39.722Z,90.44
2022-11-28T23:19:13.185Z,91.12
2022-11-28T23:21:43.153Z,90.35
2022-11-28T23:24:18.390Z,90.71
2022-11-28T23:26:47.489Z,90.17
2022-11-28T23:29:15.908Z,89.89
2022-11-28T23:31:44.459Z,90.02
2022-11-28T23:34:13.251Z,90.53
2022-11-28T23:36:46.672Z,89.78
2022-11-28T23:39:20.909Z,90.27
2022-11-28T23:41:48.791Z,89.87
2022-11-28T23:44:17.880Z,89.81
2022-11-28T23:46:46.034Z,89.81
2022-11-28T23:49:13.793Z,89.23
2022-11-28T23:51:41.369Z,90.22
2022-11-28T23:54:10.362Z,89.98
2022-11-28T23:56:40.180Z,89.25
2022-11-28T23:59:10.218Z,89.66
